AirNav   Everest Fuels
 
 490 users online  

1KY7 Jordan Hill Farm Airport
Richmond, Kentucky, USA

GOING TO RICHMOND?


FAA INFORMATION EFFECTIVE 07 NOVEMBER 2019

Location

FAA Identifier: 1KY7
Lat/Long: 37-49-57.0000N 084-10-51.0000W
37-49.950000N 084-10.850000W
37.8325000,-84.1808333
(estimated)
Elevation: 910 ft. / 277 m (estimated)
Variation: 03W (1990)
From city: 8 miles NE of RICHMOND, KY
Time zone: UTC -5 (UTC -4 during Daylight Saving Time)
Zip code: 40475

Airport Operations

Airport use: Private use. Permission required prior to landing
Activation date: 11/1994
Control tower: no
ARTCC: INDIANAPOLIS CENTER
FSS: LOUISVILLE FLIGHT SERVICE STATION
Attendance: UNATNDD
Wind indicator: yes
Segmented circle: no

Airport Communications

WX AWOS-3 at RGA (14 nm SW): 119.625 (859-985-5969)
WX AWOS-3 at IOB (17 nm NE): 120.675 (859-498-7001)

Nearby radio navigation aids

VOR radial/distance  VOR name  Freq  Var
HYKr120/16.0LEXINGTON VOR/DME112.6000E

 
NDB name  Hdg/Dist  Freq  Var  ID
SECO305/8.439303WXYC -..- -.-- -.-.
MOUNT STERLING221/16.621006WIOB .. --- -...
GOODALL064/31.731103WDVK -.. ...- -.-

Airport Services

Runway Information

Runway 18/36

Dimensions: 2000 x 125 ft. / 610 x 38 m
Surface: turf, in good condition
Runway edge markings: 18/36 OUTLINED WITH ORANGE REFLECTIVE BARRELS.
Operational restrictions: ALL LANDINGS FROM THE NORTH; TAKEOFFS TO THE NORTH.
RUNWAY 18  RUNWAY 36
Traffic pattern: leftleft
Obstructions: none40 ft. pline, 300 ft. from runway

Airport Ownership and Management from official FAA records

Ownership: Privately-owned
Owner: JERRY BRACKETT
722 WALKER PARK ROAD
RICHMOND, KY 40475
Phone 606-623-8114
Manager: JERRY BRACKETT
722 WALKER PARK ROAD
RICHMOND, KY 40475
Phone 606-623-8114

Airport Operational Statistics

Aircraft based on the field: 3
Single engine airplanes: 3
    

Additional Remarks

FOR CD CTC LEXINGTON APCH AT 859-514-7890.

Instrument Procedures

There are no published instrument procedures at 1KY7.

Some nearby airports with instrument procedures:

KRGA - Central Kentucky Regional Airport (14 nm SW)
KIOB - Mount Sterling-Montgomery County Airport (17 nm NE)
KLEX - Blue Grass Airport (24 nm NW)
27K - Georgetown-Scott County Regional Airport (27 nm NW)
KDVK - Stuart Powell Field Airport (32 nm SW)
 
Loc | Ops | Rwys | IFR | FBO | Links
Com | Nav | Svcs | Stats | Notes
Area around 1KY7 (Jordan Hill Farm Airport)
 
Road maps at: MapQuest Bing Google
 
Aerial photo
No photo
 
Sectional chart

 
Airport distance calculator
Flying to Jordan Hill Farm Airport? Find the distance to fly.

From to 1KY7

Sunrise and sunset
Times for 19-Nov-2019
 Local
(UTC-5)
 Zulu
(UTC)
Morning civil twilight06:5411:54
Sunrise07:2212:22
Sunset17:2222:22
Evening civil twilight17:5022:50

Current date and time
Zulu (UTC)  19-Nov-2019 11:14:43
Local (UTC-5)  19-Nov-2019 06:14:43
 
METAR
KRGA 
14nm SW 
191055Z AUTO 19005KT 10SM SCT120 04/01 A2980 RMK AO2
KIOB 
17nm NE 
191055Z AUTO 20003KT 10SM CLR 03/00 A2982 RMK AO2
KLEX 
23nm NW 
191054Z 16006KT 9SM CLR 03/M01 A2979 RMK AO2 SLP091 T00281006
K27K 
27nm NW 
191055Z AUTO 00000KT 7SM CLR 00/M01 A2980 RMK AO1
TAF
KLEX 
23nm NW 
190520Z 1906/2006 VRB03KT P6SM OVC035 FM190900 20004KT P6SM BKN050 FM191600 20007KT P6SM VCSH OVC025 PROB30 1918/1924 5SM -RA BKN012 FM200300 27005KT 6SM BR BKN009
NOTAMs
Click for the latest NOTAMs
NOTAMs are issued by the DoD/FAA and will open in a separate window not controlled by AirNav.

 

 
 

Would you like to see your business listed on this page?

 If your business provides an interesting product or service to pilots, flight crews, aircraft, or users of the Jordan Hill Farm Airport, you should consider listing it here.  To start the listing process, click on the button below
 
Add a business
 

Other Pages about Jordan Hill Farm Airport

Update a link
 
Copyright © AirNav, LLC. All rights reserved. Privacy Policy  Contact